sensor_id;sensor_type;location;lat;lon;timestamp;P1;durP1;ratioP1;P2;durP2;ratioP2
51292;SDS011;37377;45.186;9.778;2023-07-30T00:10:59;3.63;;;2.10;;
51292;SDS011;37377;45.186;9.778;2023-07-30T00:21:17;4.30;;;2.47;;
51292;SDS011;37377;45.186;9.778;2023-07-30T00:36:31;8.70;;;3.08;;
51292;SDS011;37377;45.186;9.778;2023-07-30T00:45:00;6.75;;;2.88;;
51292;SDS011;37377;45.186;9.778;2023-07-30T00:48:09;6.13;;;2.63;;
51292;SDS011;37377;45.186;9.778;2023-07-30T00:55:36;4.55;;;2.30;;
51292;SDS011;37377;45.186;9.778;2023-07-30T00:58:31;4.25;;;2.13;;
51292;SDS011;37377;45.186;9.778;2023-07-30T01:00:59;3.33;;;1.77;;
51292;SDS011;37377;45.186;9.778;2023-07-30T01:03:56;2.40;;;1.90;;
51292;SDS011;37377;45.186;9.778;2023-07-30T01:11:17;9.68;;;2.35;;
51292;SDS011;37377;45.186;9.778;2023-07-30T01:13:44;3.72;;;1.70;;
51292;SDS011;37377;45.186;9.778;2023-07-30T01:16:24;2.90;;;1.70;;
51292;SDS011;37377;45.186;9.778;2023-07-30T01:19:22;2.38;;;1.83;;
51292;SDS011;37377;45.186;9.778;2023-07-30T01:21:49;4.43;;;1.70;;
51292;SDS011;37377;45.186;9.778;2023-07-30T01:24:26;1.95;;;1.60;;
51292;SDS011;37377;45.186;9.778;2023-07-30T01:27:01;2.00;;;1.60;;
51292;SDS011;37377;45.186;9.778;2023-07-30T01:29:33;2.60;;;1.70;;
51292;SDS011;37377;45.186;9.778;2023-07-30T01:32:07;5.03;;;1.83;;
51292;SDS011;37377;45.186;9.778;2023-07-30T01:34:35;2.83;;;1.60;;
51292;SDS011;37377;45.186;9.778;2023-07-30T01:37:09;5.45;;;1.92;;
51292;SDS011;37377;45.186;9.778;2023-07-30T01:39:37;3.13;;;1.88;;
51292;SDS011;37377;45.186;9.778;2023-07-30T01:42:04;3.17;;;1.67;;
51292;SDS011;37377;45.186;9.778;2023-07-30T01:44:32;5.13;;;1.90;;
51292;SDS011;37377;45.186;9.778;2023-07-30T01:46:59;5.05;;;1.65;;
51292;SDS011;37377;45.186;9.778;2023-07-30T01:49:26;4.13;;;1.75;;
51292;SDS011;37377;45.186;9.778;2023-07-30T01:51:55;4.72;;;1.90;;
51292;SDS011;37377;45.186;9.778;2023-07-30T01:54:21;2.97;;;1.90;;
51292;SDS011;37377;45.186;9.778;2023-07-30T01:57:00;3.45;;;2.20;;
51292;SDS011;37377;45.186;9.778;2023-07-30T01:59:42;4.28;;;2.20;;
51292;SDS011;37377;45.186;9.778;2023-07-30T02:02:40;5.68;;;2.42;;
51292;SDS011;37377;45.186;9.778;2023-07-30T02:05:07;2.85;;;1.77;;
51292;SDS011;37377;45.186;9.778;2023-07-30T02:08:04;2.78;;;1.90;;
51292;SDS011;37377;45.186;9.778;2023-07-30T02:10:30;5.88;;;2.30;;
51292;SDS011;37377;45.186;9.778;2023-07-30T02:12:57;4.63;;;2.10;;
51292;SDS011;37377;45.186;9.778;2023-07-30T02:15:47;5.15;;;2.30;;
51292;SDS011;37377;45.186;9.778;2023-07-30T02:18:14;7.45;;;2.05;;
51292;SDS011;37377;45.186;9.778;2023-07-30T02:20:41;7.05;;;2.53;;
51292;SDS011;37377;45.186;9.778;2023-07-30T02:23:08;3.80;;;2.50;;
51292;SDS011;37377;45.186;9.778;2023-07-30T02:26:00;4.05;;;2.50;;
51292;SDS011;37377;45.186;9.778;2023-07-30T02:28:58;8.43;;;2.65;;
51292;SDS011;37377;45.186;9.778;2023-07-30T02:31:59;4.00;;;2.20;;
51292;SDS011;37377;45.186;9.778;2023-07-30T02:34:28;5.63;;;2.58;;
51292;SDS011;37377;45.186;9.778;2023-07-30T02:36:55;4.63;;;2.40;;
51292;SDS011;37377;45.186;9.778;2023-07-30T02:39:41;2.97;;;2.30;;
51292;SDS011;37377;45.186;9.778;2023-07-30T02:42:38;4.35;;;2.42;;
51292;SDS011;37377;45.186;9.778;2023-07-30T02:45:05;6.22;;;2.50;;
51292;SDS011;37377;45.186;9.778;2023-07-30T02:47:43;8.38;;;3.47;;
51292;SDS011;37377;45.186;9.778;2023-07-30T03:06:49;6.78;;;3.65;;
51292;SDS011;37377;45.186;9.778;2023-07-30T03:31:19;8.05;;;7.25;;
51292;SDS011;37377;45.186;9.778;2023-07-30T03:34:00;7.03;;;6.50;;
51292;SDS011;37377;45.186;9.778;2023-07-30T03:37:08;11.88;;;7.13;;
51292;SDS011;37377;45.186;9.778;2023-07-30T03:40:17;9.18;;;7.80;;
51292;SDS011;37377;45.186;9.778;2023-07-30T03:43:50;9.18;;;8.27;;
51292;SDS011;37377;45.186;9.778;2023-07-30T03:51:49;13.60;;;7.90;;
51292;SDS011;37377;45.186;9.778;2023-07-30T03:54:52;8.30;;;7.53;;
51292;SDS011;37377;45.186;9.778;2023-07-30T03:58:22;8.05;;;7.30;;
51292;SDS011;37377;45.186;9.778;2023-07-30T04:02:03;10.82;;;7.63;;
51292;SDS011;37377;45.186;9.778;2023-07-30T04:05:14;7.85;;;7.25;;
51292;SDS011;37377;45.186;9.778;2023-07-30T04:14:18;9.25;;;8.35;;
51292;SDS011;37377;45.186;9.778;2023-07-30T04:17:36;9.18;;;7.78;;
51292;SDS011;37377;45.186;9.778;2023-07-30T04:21:45;11.23;;;7.35;;
51292;SDS011;37377;45.186;9.778;2023-07-30T04:25:01;8.52;;;7.53;;
51292;SDS011;37377;45.186;9.778;2023-07-30T04:27:44;12.93;;;7.68;;
51292;SDS011;37377;45.186;9.778;2023-07-30T04:30:25;10.00;;;7.32;;
51292;SDS011;37377;45.186;9.778;2023-07-30T04:33:01;10.20;;;7.72;;
51292;SDS011;37377;45.186;9.778;2023-07-30T04:35:34;10.63;;;7.65;;
51292;SDS011;37377;45.186;9.778;2023-07-30T04:39:36;8.95;;;7.10;;
51292;SDS011;37377;45.186;9.778;2023-07-30T04:42:36;7.80;;;7.03;;
51292;SDS011;37377;45.186;9.778;2023-07-30T04:45:44;12.18;;;7.05;;
51292;SDS011;37377;45.186;9.778;2023-07-30T04:48:15;9.82;;;7.03;;
51292;SDS011;37377;45.186;9.778;2023-07-30T04:50:46;9.05;;;6.15;;
51292;SDS011;37377;45.186;9.778;2023-07-30T04:53:36;6.20;;;5.60;;
51292;SDS011;37377;45.186;9.778;2023-07-30T04:56:03;9.90;;;6.13;;
51292;SDS011;37377;45.186;9.778;2023-07-30T04:58:30;6.30;;;5.32;;
51292;SDS011;37377;45.186;9.778;2023-07-30T05:00:57;12.98;;;5.25;;
51292;SDS011;37377;45.186;9.778;2023-07-30T05:03:23;14.10;;;5.20;;
51292;SDS011;37377;45.186;9.778;2023-07-30T05:05:50;6.18;;;4.90;;
51292;SDS011;37377;45.186;9.778;2023-07-30T05:08:17;6.10;;;4.43;;
51292;SDS011;37377;45.186;9.778;2023-07-30T05:10:44;12.98;;;4.60;;
51292;SDS011;37377;45.186;9.778;2023-07-30T05:13:10;8.55;;;4.32;;
51292;SDS011;37377;45.186;9.778;2023-07-30T05:15:39;4.75;;;4.07;;
51292;SDS011;37377;45.186;9.778;2023-07-30T05:18:06;6.35;;;3.83;;
51292;SDS011;37377;45.186;9.778;2023-07-30T05:20:33;4.05;;;3.63;;
51292;SDS011;37377;45.186;9.778;2023-07-30T05:22:59;11.23;;;3.97;;
51292;SDS011;37377;45.186;9.778;2023-07-30T05:25:26;7.57;;;3.75;;
51292;SDS011;37377;45.186;9.778;2023-07-30T05:27:53;6.85;;;3.70;;
51292;SDS011;37377;45.186;9.778;2023-07-30T05:30:20;7.30;;;3.42;;
51292;SDS011;37377;45.186;9.778;2023-07-30T05:32:47;4.13;;;2.90;;
51292;SDS011;37377;45.186;9.778;2023-07-30T05:35:13;7.28;;;3.17;;
51292;SDS011;37377;45.186;9.778;2023-07-30T05:37:41;6.63;;;3.22;;
51292;SDS011;37377;45.186;9.778;2023-07-30T05:40:07;4.20;;;2.70;;
51292;SDS011;37377;45.186;9.778;2023-07-30T05:42:35;4.75;;;3.30;;
51292;SDS011;37377;45.186;9.778;2023-07-30T05:45:01;7.25;;;3.03;;
51292;SDS011;37377;45.186;9.778;2023-07-30T05:47:29;5.65;;;3.00;;
51292;SDS011;37377;45.186;9.778;2023-07-30T05:49:56;6.82;;;2.83;;
51292;SDS011;37377;45.186;9.778;2023-07-30T05:52:22;6.30;;;3.05;;
51292;SDS011;37377;45.186;9.778;2023-07-30T05:54:49;5.95;;;2.83;;
51292;SDS011;37377;45.186;9.778;2023-07-30T05:57:16;5.38;;;3.10;;
51292;SDS011;37377;45.186;9.778;2023-07-30T05:59:43;9.00;;;2.95;;
51292;SDS011;37377;45.186;9.778;2023-07-30T06:02:10;9.05;;;3.45;;
51292;SDS011;37377;45.186;9.778;2023-07-30T06:04:36;11.75;;;3.40;;
51292;SDS011;37377;45.186;9.778;2023-07-30T06:07:03;11.73;;;3.92;;
51292;SDS011;37377;45.186;9.778;2023-07-30T06:09:30;6.22;;;3.63;;
51292;SDS011;37377;45.186;9.778;2023-07-30T06:12:00;8.70;;;3.20;;
51292;SDS011;37377;45.186;9.778;2023-07-30T06:14:29;6.10;;;3.35;;
51292;SDS011;37377;45.186;9.778;2023-07-30T06:17:01;11.88;;;3.25;;
51292;SDS011;37377;45.186;9.778;2023-07-30T06:19:29;7.15;;;3.30;;
51292;SDS011;37377;45.186;9.778;2023-07-30T06:21:55;4.13;;;2.88;;
51292;SDS011;37377;45.186;9.778;2023-07-30T06:24:22;10.20;;;3.10;;
51292;SDS011;37377;45.186;9.778;2023-07-30T06:26:49;5.22;;;3.58;;
51292;SDS011;37377;45.186;9.778;2023-07-30T06:29:16;8.45;;;3.50;;
51292;SDS011;37377;45.186;9.778;2023-07-30T06:31:42;11.32;;;3.90;;
51292;SDS011;37377;45.186;9.778;2023-07-30T06:34:09;7.10;;;3.50;;
51292;SDS011;37377;45.186;9.778;2023-07-30T06:36:36;5.68;;;3.25;;
51292;SDS011;37377;45.186;9.778;2023-07-30T06:39:03;7.40;;;2.65;;
51292;SDS011;37377;45.186;9.778;2023-07-30T06:41:30;6.35;;;2.92;;
51292;SDS011;37377;45.186;9.778;2023-07-30T06:43:57;4.75;;;3.10;;
51292;SDS011;37377;45.186;9.778;2023-07-30T06:46:23;6.38;;;3.28;;
51292;SDS011;37377;45.186;9.778;2023-07-30T06:48:50;7.53;;;3.47;;
51292;SDS011;37377;45.186;9.778;2023-07-30T06:51:23;25.92;;;3.92;;
51292;SDS011;37377;45.186;9.778;2023-07-30T06:53:50;6.60;;;3.40;;
51292;SDS011;37377;45.186;9.778;2023-07-30T06:56:17;3.53;;;2.97;;
51292;SDS011;37377;45.186;9.778;2023-07-30T06:58:44;6.15;;;3.22;;
51292;SDS011;37377;45.186;9.778;2023-07-30T07:01:11;4.90;;;2.90;;
51292;SDS011;37377;45.186;9.778;2023-07-30T07:03:39;4.03;;;2.58;;
51292;SDS011;37377;45.186;9.778;2023-07-30T07:06:06;6.13;;;3.08;;
51292;SDS011;37377;45.186;9.778;2023-07-30T07:08:33;4.60;;;2.97;;
51292;SDS011;37377;45.186;9.778;2023-07-30T07:11:00;5.90;;;2.78;;
51292;SDS011;37377;45.186;9.778;2023-07-30T07:13:26;5.10;;;3.13;;
51292;SDS011;37377;45.186;9.778;2023-07-30T07:15:53;6.22;;;4.93;;
51292;SDS011;37377;45.186;9.778;2023-07-30T07:18:20;4.22;;;2.50;;
51292;SDS011;37377;45.186;9.778;2023-07-30T07:20:47;5.50;;;3.20;;
51292;SDS011;37377;45.186;9.778;2023-07-30T07:23:14;5.00;;;3.22;;
51292;SDS011;37377;45.186;9.778;2023-07-30T07:25:41;11.27;;;3.30;;
51292;SDS011;37377;45.186;9.778;2023-07-30T07:28:08;4.05;;;3.08;;
51292;SDS011;37377;45.186;9.778;2023-07-30T07:30:35;4.85;;;3.10;;
51292;SDS011;37377;45.186;9.778;2023-07-30T07:33:03;6.45;;;2.75;;
51292;SDS011;37377;45.186;9.778;2023-07-30T07:35:32;3.35;;;2.65;;
51292;SDS011;37377;45.186;9.778;2023-07-30T07:37:59;7.80;;;2.85;;
51292;SDS011;37377;45.186;9.778;2023-07-30T07:40:26;9.50;;;2.78;;
51292;SDS011;37377;45.186;9.778;2023-07-30T07:42:54;4.45;;;2.88;;
51292;SDS011;37377;45.186;9.778;2023-07-30T07:45:21;5.57;;;2.40;;
51292;SDS011;37377;45.186;9.778;2023-07-30T07:47:48;4.28;;;3.38;;
51292;SDS011;37377;45.186;9.778;2023-07-30T07:50:15;4.80;;;2.20;;
51292;SDS011;37377;45.186;9.778;2023-07-30T07:52:42;4.25;;;2.58;;
51292;SDS011;37377;45.186;9.778;2023-07-30T07:55:09;5.07;;;2.63;;
51292;SDS011;37377;45.186;9.778;2023-07-30T07:57:36;6.72;;;3.20;;
51292;SDS011;37377;45.186;9.778;2023-07-30T08:00:05;9.93;;;3.05;;
51292;SDS011;37377;45.186;9.778;2023-07-30T08:02:37;8.52;;;2.63;;
51292;SDS011;37377;45.186;9.778;2023-07-30T08:05:04;4.20;;;2.33;;
51292;SDS011;37377;45.186;9.778;2023-07-30T08:07:31;6.43;;;2.60;;
51292;SDS011;37377;45.186;9.778;2023-07-30T08:09:58;7.10;;;4.63;;
51292;SDS011;37377;45.186;9.778;2023-07-30T08:12:25;7.18;;;3.63;;
51292;SDS011;37377;45.186;9.778;2023-07-30T08:14:52;19.63;;;4.40;;
51292;SDS011;37377;45.186;9.778;2023-07-30T08:17:18;4.78;;;3.25;;
51292;SDS011;37377;45.186;9.778;2023-07-30T08:19:47;8.77;;;3.20;;
51292;SDS011;37377;45.186;9.778;2023-07-30T08:22:14;6.53;;;2.78;;
51292;SDS011;37377;45.186;9.778;2023-07-30T08:24:41;8.20;;;3.38;;
51292;SDS011;37377;45.186;9.778;2023-07-30T08:27:07;6.75;;;2.70;;
51292;SDS011;37377;45.186;9.778;2023-07-30T08:29:34;11.02;;;2.80;;
51292;SDS011;37377;45.186;9.778;2023-07-30T08:32:04;9.60;;;3.03;;
51292;SDS011;37377;45.186;9.778;2023-07-30T08:34:32;3.72;;;2.67;;
51292;SDS011;37377;45.186;9.778;2023-07-30T08:36:58;13.13;;;3.25;;
51292;SDS011;37377;45.186;9.778;2023-07-30T08:39:25;9.82;;;3.03;;
51292;SDS011;37377;45.186;9.778;2023-07-30T08:41:52;27.05;;;3.15;;
51292;SDS011;37377;45.186;9.778;2023-07-30T08:44:19;10.20;;;3.60;;
51292;SDS011;37377;45.186;9.778;2023-07-30T08:46:46;6.55;;;4.57;;
51292;SDS011;37377;45.186;9.778;2023-07-30T08:49:13;4.85;;;3.00;;
51292;SDS011;37377;45.186;9.778;2023-07-30T08:51:40;7.15;;;3.72;;
51292;SDS011;37377;45.186;9.778;2023-07-30T08:54:09;7.68;;;3.67;;
51292;SDS011;37377;45.186;9.778;2023-07-30T08:56:37;9.10;;;3.15;;
51292;SDS011;37377;45.186;9.778;2023-07-30T08:59:04;3.22;;;2.70;;
51292;SDS011;37377;45.186;9.778;2023-07-30T09:01:34;6.50;;;3.67;;
51292;SDS011;37377;45.186;9.778;2023-07-30T09:04:03;6.25;;;2.42;;
51292;SDS011;37377;45.186;9.778;2023-07-30T09:06:30;4.95;;;2.85;;
51292;SDS011;37377;45.186;9.778;2023-07-30T09:08:57;7.32;;;2.45;;
51292;SDS011;37377;45.186;9.778;2023-07-30T09:11:27;5.40;;;2.97;;
51292;SDS011;37377;45.186;9.778;2023-07-30T09:13:54;5.97;;;2.50;;
51292;SDS011;37377;45.186;9.778;2023-07-30T09:16:24;4.00;;;2.67;;
51292;SDS011;37377;45.186;9.778;2023-07-30T09:18:52;4.55;;;2.58;;
51292;SDS011;37377;45.186;9.778;2023-07-30T09:21:31;4.93;;;2.63;;
51292;SDS011;37377;45.186;9.778;2023-07-30T09:24:03;5.55;;;2.55;;
51292;SDS011;37377;45.186;9.778;2023-07-30T09:26:42;5.50;;;2.30;;
51292;SDS011;37377;45.186;9.778;2023-07-30T09:29:10;7.82;;;2.38;;
51292;SDS011;37377;45.186;9.778;2023-07-30T09:31:45;5.43;;;2.75;;
51292;SDS011;37377;45.186;9.778;2023-07-30T09:34:18;7.00;;;2.78;;
51292;SDS011;37377;45.186;9.778;2023-07-30T09:36:45;4.97;;;3.33;;
51292;SDS011;37377;45.186;9.778;2023-07-30T09:39:20;7.28;;;2.78;;
51292;SDS011;37377;45.186;9.778;2023-07-30T09:41:49;8.90;;;2.72;;
51292;SDS011;37377;45.186;9.778;2023-07-30T09:44:18;5.45;;;2.53;;
51292;SDS011;37377;45.186;9.778;2023-07-30T09:46:47;8.18;;;2.88;;
51292;SDS011;37377;45.186;9.778;2023-07-30T09:49:15;8.20;;;2.90;;
51292;SDS011;37377;45.186;9.778;2023-07-30T09:51:43;6.43;;;2.33;;
51292;SDS011;37377;45.186;9.778;2023-07-30T09:54:11;4.75;;;2.55;;
51292;SDS011;37377;45.186;9.778;2023-07-30T09:56:40;6.68;;;2.72;;
51292;SDS011;37377;45.186;9.778;2023-07-30T09:59:07;3.58;;;2.67;;
51292;SDS011;37377;45.186;9.778;2023-07-30T10:01:36;5.20;;;3.08;;
51292;SDS011;37377;45.186;9.778;2023-07-30T10:04:07;6.03;;;2.47;;
51292;SDS011;37377;45.186;9.778;2023-07-30T10:06:36;5.55;;;2.42;;
51292;SDS011;37377;45.186;9.778;2023-07-30T10:09:06;5.75;;;2.60;;
51292;SDS011;37377;45.186;9.778;2023-07-30T10:11:34;6.18;;;2.10;;
51292;SDS011;37377;45.186;9.778;2023-07-30T10:14:02;6.55;;;2.40;;
51292;SDS011;37377;45.186;9.778;2023-07-30T10:16:29;4.55;;;2.33;;
51292;SDS011;37377;45.186;9.778;2023-07-30T10:18:56;10.30;;;2.88;;
51292;SDS011;37377;45.186;9.778;2023-07-30T10:21:26;10.38;;;2.40;;
51292;SDS011;37377;45.186;9.778;2023-07-30T10:24:00;2.85;;;2.30;;
51292;SDS011;37377;45.186;9.778;2023-07-30T10:26:35;4.32;;;2.58;;
51292;SDS011;37377;45.186;9.778;2023-07-30T10:29:16;7.03;;;2.83;;
51292;SDS011;37377;45.186;9.778;2023-07-30T10:31:52;4.10;;;2.60;;
51292;SDS011;37377;45.186;9.778;2023-07-30T10:34:22;4.00;;;2.75;;
51292;SDS011;37377;45.186;9.778;2023-07-30T10:36:52;5.35;;;2.80;;
51292;SDS011;37377;45.186;9.778;2023-07-30T10:39:25;3.72;;;2.50;;
51292;SDS011;37377;45.186;9.778;2023-07-30T10:41:56;4.00;;;2.35;;
51292;SDS011;37377;45.186;9.778;2023-07-30T10:44:31;5.35;;;2.58;;
51292;SDS011;37377;45.186;9.778;2023-07-30T10:47:00;4.30;;;2.80;;
51292;SDS011;37377;45.186;9.778;2023-07-30T10:49:28;3.47;;;2.63;;
51292;SDS011;37377;45.186;9.778;2023-07-30T10:51:56;5.40;;;2.72;;
51292;SDS011;37377;45.186;9.778;2023-07-30T10:54:23;3.58;;;2.60;;
51292;SDS011;37377;45.186;9.778;2023-07-30T10:56:51;7.53;;;2.60;;
51292;SDS011;37377;45.186;9.778;2023-07-30T10:59:18;6.15;;;2.42;;
51292;SDS011;37377;45.186;9.778;2023-07-30T11:01:46;4.72;;;2.95;;
51292;SDS011;37377;45.186;9.778;2023-07-30T11:04:17;6.70;;;3.13;;
51292;SDS011;37377;45.186;9.778;2023-07-30T11:06:45;7.70;;;2.75;;
51292;SDS011;37377;45.186;9.778;2023-07-30T11:09:23;4.00;;;2.92;;
51292;SDS011;37377;45.186;9.778;2023-07-30T11:11:53;5.90;;;2.92;;
51292;SDS011;37377;45.186;9.778;2023-07-30T11:14:21;3.25;;;2.33;;
51292;SDS011;37377;45.186;9.778;2023-07-30T11:16:50;7.80;;;5.60;;
51292;SDS011;37377;45.186;9.778;2023-07-30T11:19:18;4.18;;;2.58;;
51292;SDS011;37377;45.186;9.778;2023-07-30T11:21:48;3.67;;;2.70;;
51292;SDS011;37377;45.186;9.778;2023-07-30T11:24:20;4.80;;;2.58;;
51292;SDS011;37377;45.186;9.778;2023-07-30T11:26:57;4.63;;;3.15;;
51292;SDS011;37377;45.186;9.778;2023-07-30T11:29:25;6.75;;;2.40;;
51292;SDS011;37377;45.186;9.778;2023-07-30T11:31:52;4.07;;;2.92;;
51292;SDS011;37377;45.186;9.778;2023-07-30T11:34:23;2.80;;;2.33;;
51292;SDS011;37377;45.186;9.778;2023-07-30T11:36:50;5.40;;;2.35;;
51292;SDS011;37377;45.186;9.778;2023-07-30T11:39:16;3.45;;;2.50;;
51292;SDS011;37377;45.186;9.778;2023-07-30T11:41:43;7.63;;;2.60;;
51292;SDS011;37377;45.186;9.778;2023-07-30T11:44:28;5.75;;;2.30;;
51292;SDS011;37377;45.186;9.778;2023-07-30T11:46:56;5.85;;;2.80;;
51292;SDS011;37377;45.186;9.778;2023-07-30T11:49:23;9.23;;;2.50;;
51292;SDS011;37377;45.186;9.778;2023-07-30T11:51:50;10.43;;;2.72;;
51292;SDS011;37377;45.186;9.778;2023-07-30T11:54:21;8.75;;;3.15;;
51292;SDS011;37377;45.186;9.778;2023-07-30T11:56:55;6.25;;;2.83;;
51292;SDS011;37377;45.186;9.778;2023-07-30T11:59:22;13.00;;;2.72;;
51292;SDS011;37377;45.186;9.778;2023-07-30T12:01:49;4.60;;;2.47;;
51292;SDS011;37377;45.186;9.778;2023-07-30T12:04:16;11.25;;;2.95;;
51292;SDS011;37377;45.186;9.778;2023-07-30T12:06:47;8.13;;;2.42;;
51292;SDS011;37377;45.186;9.778;2023-07-30T12:09:16;4.72;;;2.67;;
51292;SDS011;37377;45.186;9.778;2023-07-30T12:11:49;5.95;;;3.30;;
51292;SDS011;37377;45.186;9.778;2023-07-30T12:14:24;4.75;;;3.38;;
51292;SDS011;37377;45.186;9.778;2023-07-30T12:16:57;3.63;;;2.60;;
51292;SDS011;37377;45.186;9.778;2023-07-30T12:19:24;3.38;;;2.38;;
51292;SDS011;37377;45.186;9.778;2023-07-30T12:21:51;4.05;;;2.55;;
51292;SDS011;37377;45.186;9.778;2023-07-30T12:24:18;7.55;;;2.17;;
51292;SDS011;37377;45.186;9.778;2023-07-30T12:26:45;5.82;;;2.90;;
51292;SDS011;37377;45.186;9.778;2023-07-30T12:29:12;7.50;;;2.45;;
51292;SDS011;37377;45.186;9.778;2023-07-30T12:31:38;7.53;;;2.97;;
51292;SDS011;37377;45.186;9.778;2023-07-30T12:34:06;4.47;;;2.75;;
51292;SDS011;37377;45.186;9.778;2023-07-30T12:36:33;5.05;;;2.78;;
51292;SDS011;37377;45.186;9.778;2023-07-30T12:39:00;4.97;;;2.47;;
51292;SDS011;37377;45.186;9.778;2023-07-30T12:41:30;10.73;;;2.92;;
51292;SDS011;37377;45.186;9.778;2023-07-30T12:43:57;5.95;;;2.25;;
51292;SDS011;37377;45.186;9.778;2023-07-30T12:46:24;3.90;;;2.55;;
51292;SDS011;37377;45.186;9.778;2023-07-30T12:48:56;4.57;;;2.90;;
51292;SDS011;37377;45.186;9.778;2023-07-30T12:51:23;12.63;;;2.80;;
51292;SDS011;37377;45.186;9.778;2023-07-30T12:53:49;4.50;;;2.75;;
51292;SDS011;37377;45.186;9.778;2023-07-30T12:56:16;10.52;;;2.42;;
51292;SDS011;37377;45.186;9.778;2023-07-30T12:58:44;4.88;;;2.50;;
51292;SDS011;37377;45.186;9.778;2023-07-30T13:01:11;4.38;;;2.63;;
51292;SDS011;37377;45.186;9.778;2023-07-30T13:03:39;5.55;;;2.90;;
51292;SDS011;37377;45.186;9.778;2023-07-30T13:06:11;10.48;;;4.40;;
51292;SDS011;37377;45.186;9.778;2023-07-30T13:08:38;9.73;;;4.22;;
51292;SDS011;37377;45.186;9.778;2023-07-30T13:11:05;4.63;;;3.63;;
51292;SDS011;37377;45.186;9.778;2023-07-30T13:13:32;3.58;;;3.03;;
51292;SDS011;37377;45.186;9.778;2023-07-30T13:15:59;5.53;;;2.80;;
51292;SDS011;37377;45.186;9.778;2023-07-30T13:18:28;4.80;;;2.53;;
51292;SDS011;37377;45.186;9.778;2023-07-30T13:20:55;4.80;;;2.97;;
51292;SDS011;37377;45.186;9.778;2023-07-30T13:23:25;7.22;;;2.67;;
51292;SDS011;37377;45.186;9.778;2023-07-30T13:25:52;5.78;;;3.78;;
51292;SDS011;37377;45.186;9.778;2023-07-30T13:28:19;3.17;;;2.22;;
51292;SDS011;37377;45.186;9.778;2023-07-30T13:30:46;4.38;;;2.50;;
51292;SDS011;37377;45.186;9.778;2023-07-30T13:33:13;6.68;;;5.43;;
51292;SDS011;37377;45.186;9.778;2023-07-30T13:35:40;4.30;;;2.17;;
51292;SDS011;37377;45.186;9.778;2023-07-30T13:38:06;4.30;;;2.22;;
51292;SDS011;37377;45.186;9.778;2023-07-30T13:40:34;4.95;;;2.65;;
51292;SDS011;37377;45.186;9.778;2023-07-30T13:43:01;9.13;;;2.92;;
51292;SDS011;37377;45.186;9.778;2023-07-30T13:45:28;4.38;;;3.08;;
51292;SDS011;37377;45.186;9.778;2023-07-30T13:47:55;5.25;;;3.00;;
51292;SDS011;37377;45.186;9.778;2023-07-30T13:50:22;5.70;;;3.33;;
51292;SDS011;37377;45.186;9.778;2023-07-30T13:52:49;3.95;;;2.45;;
51292;SDS011;37377;45.186;9.778;2023-07-30T13:55:16;3.97;;;2.72;;
51292;SDS011;37377;45.186;9.778;2023-07-30T13:57:43;3.50;;;2.42;;
51292;SDS011;37377;45.186;9.778;2023-07-30T14:00:10;6.85;;;2.63;;
51292;SDS011;37377;45.186;9.778;2023-07-30T14:02:40;4.18;;;2.40;;
51292;SDS011;37377;45.186;9.778;2023-07-30T14:05:07;2.55;;;2.08;;
51292;SDS011;37377;45.186;9.778;2023-07-30T14:07:34;4.95;;;2.40;;
51292;SDS011;37377;45.186;9.778;2023-07-30T14:10:01;9.38;;;2.35;;
51292;SDS011;37377;45.186;9.778;2023-07-30T14:12:29;6.38;;;2.63;;
51292;SDS011;37377;45.186;9.778;2023-07-30T14:14:55;4.60;;;2.35;;
51292;SDS011;37377;45.186;9.778;2023-07-30T14:17:22;3.55;;;2.47;;
51292;SDS011;37377;45.186;9.778;2023-07-30T14:19:49;12.98;;;2.75;;
51292;SDS011;37377;45.186;9.778;2023-07-30T14:22:16;8.43;;;2.97;;
51292;SDS011;37377;45.186;9.778;2023-07-30T14:24:43;4.57;;;2.65;;
51292;SDS011;37377;45.186;9.778;2023-07-30T14:27:11;7.68;;;2.55;;
51292;SDS011;37377;45.186;9.778;2023-07-30T14:29:38;7.28;;;2.38;;
51292;SDS011;37377;45.186;9.778;2023-07-30T14:32:05;5.18;;;2.38;;
51292;SDS011;37377;45.186;9.778;2023-07-30T14:34:32;3.17;;;2.60;;
51292;SDS011;37377;45.186;9.778;2023-07-30T14:36:59;5.22;;;2.67;;
51292;SDS011;37377;45.186;9.778;2023-07-30T14:39:26;6.22;;;3.17;;
51292;SDS011;37377;45.186;9.778;2023-07-30T14:41:53;5.32;;;2.63;;
51292;SDS011;37377;45.186;9.778;2023-07-30T14:44:19;8.52;;;2.38;;
51292;SDS011;37377;45.186;9.778;2023-07-30T14:46:46;10.82;;;2.83;;
51292;SDS011;37377;45.186;9.778;2023-07-30T14:49:13;13.98;;;2.58;;
51292;SDS011;37377;45.186;9.778;2023-07-30T14:51:40;4.97;;;2.65;;
51292;SDS011;37377;45.186;9.778;2023-07-30T14:54:07;9.02;;;2.67;;
51292;SDS011;37377;45.186;9.778;2023-07-30T14:56:36;6.07;;;2.70;;
51292;SDS011;37377;45.186;9.778;2023-07-30T14:59:04;5.78;;;2.45;;
51292;SDS011;37377;45.186;9.778;2023-07-30T15:01:32;9.60;;;3.42;;
51292;SDS011;37377;45.186;9.778;2023-07-30T15:03:59;4.85;;;2.58;;
51292;SDS011;37377;45.186;9.778;2023-07-30T15:06:26;3.88;;;2.45;;
51292;SDS011;37377;45.186;9.778;2023-07-30T15:08:58;7.40;;;2.80;;
51292;SDS011;37377;45.186;9.778;2023-07-30T15:11:26;8.20;;;2.60;;
51292;SDS011;37377;45.186;9.778;2023-07-30T15:13:53;11.07;;;2.78;;
51292;SDS011;37377;45.186;9.778;2023-07-30T15:16:20;12.50;;;9.98;;
51292;SDS011;37377;45.186;9.778;2023-07-30T15:18:46;5.43;;;3.00;;
51292;SDS011;37377;45.186;9.778;2023-07-30T15:21:13;8.80;;;5.75;;
51292;SDS011;37377;45.186;9.778;2023-07-30T15:23:42;7.20;;;2.75;;
51292;SDS011;37377;45.186;9.778;2023-07-30T15:26:09;8.35;;;2.90;;
51292;SDS011;37377;45.186;9.778;2023-07-30T15:28:36;4.50;;;2.50;;
51292;SDS011;37377;45.186;9.778;2023-07-30T15:31:03;5.82;;;2.67;;
51292;SDS011;37377;45.186;9.778;2023-07-30T15:33:30;4.38;;;2.50;;
51292;SDS011;37377;45.186;9.778;2023-07-30T15:36:01;3.85;;;2.95;;
51292;SDS011;37377;45.186;9.778;2023-07-30T15:38:28;5.90;;;2.92;;
51292;SDS011;37377;45.186;9.778;2023-07-30T15:40:55;4.75;;;2.65;;
51292;SDS011;37377;45.186;9.778;2023-07-30T15:43:27;8.15;;;3.33;;
51292;SDS011;37377;45.186;9.778;2023-07-30T15:45:54;4.70;;;2.58;;
51292;SDS011;37377;45.186;9.778;2023-07-30T15:48:28;5.32;;;2.85;;
51292;SDS011;37377;45.186;9.778;2023-07-30T15:50:55;4.53;;;2.70;;
51292;SDS011;37377;45.186;9.778;2023-07-30T15:53:27;7.20;;;3.67;;
51292;SDS011;37377;45.186;9.778;2023-07-30T15:55:54;5.78;;;2.72;;
51292;SDS011;37377;45.186;9.778;2023-07-30T15:58:22;7.18;;;5.07;;
51292;SDS011;37377;45.186;9.778;2023-07-30T16:00:50;6.63;;;4.13;;
51292;SDS011;37377;45.186;9.778;2023-07-30T16:03:17;6.35;;;2.42;;
51292;SDS011;37377;45.186;9.778;2023-07-30T16:05:47;5.20;;;3.67;;
51292;SDS011;37377;45.186;9.778;2023-07-30T16:08:15;5.03;;;3.25;;
51292;SDS011;37377;45.186;9.778;2023-07-30T16:10:42;7.70;;;5.13;;
51292;SDS011;37377;45.186;9.778;2023-07-30T16:13:09;11.07;;;3.38;;
51292;SDS011;37377;45.186;9.778;2023-07-30T16:15:36;4.45;;;2.28;;
51292;SDS011;37377;45.186;9.778;2023-07-30T16:18:03;5.45;;;3.90;;
51292;SDS011;37377;45.186;9.778;2023-07-30T16:20:30;10.32;;;2.53;;
51292;SDS011;37377;45.186;9.778;2023-07-30T16:23:04;7.80;;;2.90;;
51292;SDS011;37377;45.186;9.778;2023-07-30T16:25:33;8.88;;;2.42;;
51292;SDS011;37377;45.186;9.778;2023-07-30T16:28:03;17.77;;;2.88;;
51292;SDS011;37377;45.186;9.778;2023-07-30T16:30:34;6.93;;;4.25;;
51292;SDS011;37377;45.186;9.778;2023-07-30T16:33:00;11.32;;;2.67;;
51292;SDS011;37377;45.186;9.778;2023-07-30T16:35:27;7.45;;;3.03;;
51292;SDS011;37377;45.186;9.778;2023-07-30T16:37:54;8.18;;;2.75;;
51292;SDS011;37377;45.186;9.778;2023-07-30T16:40:21;23.15;;;3.15;;
51292;SDS011;37377;45.186;9.778;2023-07-30T16:42:49;5.95;;;4.55;;
51292;SDS011;37377;45.186;9.778;2023-07-30T16:45:16;10.02;;;3.63;;
51292;SDS011;37377;45.186;9.778;2023-07-30T16:47:43;8.77;;;2.92;;